sensor_id;sensor_type;location;lat;lon;timestamp;temperature;humidity
25342;DHT22;13298;48.792;9.154;2023-03-20T00:01:23;8.10;99.90
25342;DHT22;13298;48.792;9.154;2023-03-20T00:03:51;8.10;99.90
25342;DHT22;13298;48.792;9.154;2023-03-20T00:06:25;8.20;99.90
25342;DHT22;13298;48.792;9.154;2023-03-20T00:08:54;8.20;99.90
25342;DHT22;13298;48.792;9.154;2023-03-20T00:13:57;8.20;99.90
25342;DHT22;13298;48.792;9.154;2023-03-20T00:16:28;8.20;99.90
25342;DHT22;13298;48.792;9.154;2023-03-20T00:18:56;8.20;99.90
25342;DHT22;13298;48.792;9.154;2023-03-20T00:21:23;8.20;99.90
25342;DHT22;13298;48.792;9.154;2023-03-20T00:23:49;8.20;99.90
25342;DHT22;13298;48.792;9.154;2023-03-20T00:26:16;8.20;99.90
25342;DHT22;13298;48.792;9.154;2023-03-20T00:28:45;8.20;99.90
25342;DHT22;13298;48.792;9.154;2023-03-20T00:31:28;8.20;99.90
25342;DHT22;13298;48.792;9.154;2023-03-20T00:33:58;8.20;99.90
25342;DHT22;13298;48.792;9.154;2023-03-20T00:36:28;8.10;99.90
25342;DHT22;13298;48.792;9.154;2023-03-20T00:38:54;8.10;99.90
25342;DHT22;13298;48.792;9.154;2023-03-20T00:41:32;8.10;99.90
25342;DHT22;13298;48.792;9.154;2023-03-20T00:46:46;8.20;99.90
25342;DHT22;13298;48.792;9.154;2023-03-20T00:49:13;8.20;99.90
25342;DHT22;13298;48.792;9.154;2023-03-20T00:51:39;8.20;99.90
25342;DHT22;13298;48.792;9.154;2023-03-20T00:54:14;8.20;99.90
25342;DHT22;13298;48.792;9.154;2023-03-20T00:57:03;8.10;99.90
25342;DHT22;13298;48.792;9.154;2023-03-20T01:00:04;8.10;99.90
25342;DHT22;13298;48.792;9.154;2023-03-20T01:02:31;8.10;99.90
25342;DHT22;13298;48.792;9.154;2023-03-20T01:04:58;8.10;99.90
25342;DHT22;13298;48.792;9.154;2023-03-20T01:07:24;8.10;99.90
25342;DHT22;13298;48.792;9.154;2023-03-20T01:09:51;8.10;99.90
25342;DHT22;13298;48.792;9.154;2023-03-20T01:12:17;8.10;99.90
25342;DHT22;13298;48.792;9.154;2023-03-20T01:14:43;8.00;99.90
25342;DHT22;13298;48.792;9.154;2023-03-20T01:17:17;8.00;99.90
25342;DHT22;13298;48.792;9.154;2023-03-20T01:19:48;8.00;99.90
25342;DHT22;13298;48.792;9.154;2023-03-20T01:22:14;8.00;99.90
25342;DHT22;13298;48.792;9.154;2023-03-20T01:24:42;8.00;99.90
25342;DHT22;13298;48.792;9.154;2023-03-20T01:27:13;8.00;99.90
25342;DHT22;13298;48.792;9.154;2023-03-20T01:29:39;8.10;99.90
25342;DHT22;13298;48.792;9.154;2023-03-20T01:32:11;8.10;99.90
25342;DHT22;13298;48.792;9.154;2023-03-20T01:34:41;8.10;99.90
25342;DHT22;13298;48.792;9.154;2023-03-20T01:37:21;8.10;99.90
25342;DHT22;13298;48.792;9.154;2023-03-20T01:39:49;8.10;99.90
25342;DHT22;13298;48.792;9.154;2023-03-20T01:42:15;8.10;99.90
25342;DHT22;13298;48.792;9.154;2023-03-20T01:44:41;8.10;99.90
25342;DHT22;13298;48.792;9.154;2023-03-20T01:47:22;8.10;99.90
25342;DHT22;13298;48.792;9.154;2023-03-20T01:55:45;8.00;99.90
25342;DHT22;13298;48.792;9.154;2023-03-20T01:58:17;8.00;99.90
25342;DHT22;13298;48.792;9.154;2023-03-20T02:00:46;8.00;99.90
25342;DHT22;13298;48.792;9.154;2023-03-20T02:03:15;8.00;99.90
25342;DHT22;13298;48.792;9.154;2023-03-20T02:05:42;8.10;99.90
25342;DHT22;13298;48.792;9.154;2023-03-20T02:08:29;8.00;99.90
25342;DHT22;13298;48.792;9.154;2023-03-20T02:10:57;8.00;99.90
25342;DHT22;13298;48.792;9.154;2023-03-20T02:13:26;8.10;99.90
25342;DHT22;13298;48.792;9.154;2023-03-20T02:16:05;8.00;99.90
25342;DHT22;13298;48.792;9.154;2023-03-20T02:18:40;8.00;99.90
25342;DHT22;13298;48.792;9.154;2023-03-20T02:27:23;7.90;99.90
25342;DHT22;13298;48.792;9.154;2023-03-20T02:39:05;7.90;99.90
25342;DHT22;13298;48.792;9.154;2023-03-20T02:41:50;7.90;99.90
25342;DHT22;13298;48.792;9.154;2023-03-20T02:46:59;7.90;99.90
25342;DHT22;13298;48.792;9.154;2023-03-20T02:50:02;7.90;99.90
25342;DHT22;13298;48.792;9.154;2023-03-20T02:56:11;7.90;99.90
25342;DHT22;13298;48.792;9.154;2023-03-20T02:58:45;7.90;99.90
25342;DHT22;13298;48.792;9.154;2023-03-20T03:01:19;7.90;99.90
25342;DHT22;13298;48.792;9.154;2023-03-20T03:03:53;7.90;99.90
25342;DHT22;13298;48.792;9.154;2023-03-20T03:06:28;7.90;99.90
25342;DHT22;13298;48.792;9.154;2023-03-20T03:11:40;7.80;99.90
25342;DHT22;13298;48.792;9.154;2023-03-20T03:14:18;7.80;99.90
25342;DHT22;13298;48.792;9.154;2023-03-20T03:16:50;7.80;99.90
25342;DHT22;13298;48.792;9.154;2023-03-20T03:19:22;7.90;99.90
25342;DHT22;13298;48.792;9.154;2023-03-20T03:21:48;7.80;99.90
25342;DHT22;13298;48.792;9.154;2023-03-20T03:24:30;7.80;99.90
25342;DHT22;13298;48.792;9.154;2023-03-20T03:27:02;7.90;99.90
25342;DHT22;13298;48.792;9.154;2023-03-20T03:29:33;7.90;99.90
25342;DHT22;13298;48.792;9.154;2023-03-20T03:32:02;7.80;99.90
25342;DHT22;13298;48.792;9.154;2023-03-20T03:34:30;7.80;99.90
25342;DHT22;13298;48.792;9.154;2023-03-20T03:40:03;7.80;99.90
25342;DHT22;13298;48.792;9.154;2023-03-20T03:43:09;7.80;99.90
25342;DHT22;13298;48.792;9.154;2023-03-20T03:46:04;7.80;99.90
25342;DHT22;13298;48.792;9.154;2023-03-20T03:48:42;7.80;99.90
25342;DHT22;13298;48.792;9.154;2023-03-20T03:51:15;7.80;99.90
25342;DHT22;13298;48.792;9.154;2023-03-20T03:53:48;7.80;99.90
25342;DHT22;13298;48.792;9.154;2023-03-20T03:56:20;7.80;99.90
25342;DHT22;13298;48.792;9.154;2023-03-20T03:58:51;7.80;99.90
25342;DHT22;13298;48.792;9.154;2023-03-20T04:01:22;7.80;99.90
25342;DHT22;13298;48.792;9.154;2023-03-20T04:03:53;7.90;99.90
25342;DHT22;13298;48.792;9.154;2023-03-20T04:06:21;7.80;99.90
25342;DHT22;13298;48.792;9.154;2023-03-20T04:08:47;7.80;99.90
25342;DHT22;13298;48.792;9.154;2023-03-20T04:11:18;7.80;99.90
25342;DHT22;13298;48.792;9.154;2023-03-20T04:13:47;7.80;99.90
25342;DHT22;13298;48.792;9.154;2023-03-20T04:16:16;7.80;99.90
25342;DHT22;13298;48.792;9.154;2023-03-20T04:18:42;7.80;99.90
25342;DHT22;13298;48.792;9.154;2023-03-20T04:21:08;7.70;99.90
25342;DHT22;13298;48.792;9.154;2023-03-20T04:23:34;7.80;99.90
25342;DHT22;13298;48.792;9.154;2023-03-20T04:26:00;7.80;99.90
25342;DHT22;13298;48.792;9.154;2023-03-20T04:28:27;7.80;99.90
25342;DHT22;13298;48.792;9.154;2023-03-20T04:30:57;7.80;99.90
25342;DHT22;13298;48.792;9.154;2023-03-20T04:33:24;7.80;99.90
25342;DHT22;13298;48.792;9.154;2023-03-20T04:35:51;7.70;99.90
25342;DHT22;13298;48.792;9.154;2023-03-20T04:38:17;7.70;99.90
25342;DHT22;13298;48.792;9.154;2023-03-20T04:40:44;7.70;99.90
25342;DHT22;13298;48.792;9.154;2023-03-20T04:43:11;7.60;99.90
25342;DHT22;13298;48.792;9.154;2023-03-20T04:45:37;7.60;99.90
25342;DHT22;13298;48.792;9.154;2023-03-20T04:48:03;7.60;99.90
25342;DHT22;13298;48.792;9.154;2023-03-20T04:50:29;7.60;99.90
25342;DHT22;13298;48.792;9.154;2023-03-20T04:52:55;7.60;99.90
25342;DHT22;13298;48.792;9.154;2023-03-20T04:55:20;7.50;99.90
25342;DHT22;13298;48.792;9.154;2023-03-20T04:57:47;7.60;99.90
25342;DHT22;13298;48.792;9.154;2023-03-20T05:00:13;7.50;99.90
25342;DHT22;13298;48.792;9.154;2023-03-20T05:02:39;7.50;99.90
25342;DHT22;13298;48.792;9.154;2023-03-20T05:05:05;7.50;99.90
25342;DHT22;13298;48.792;9.154;2023-03-20T05:07:31;7.60;99.90
25342;DHT22;13298;48.792;9.154;2023-03-20T05:09:57;7.60;99.90
25342;DHT22;13298;48.792;9.154;2023-03-20T05:12:24;7.60;99.90
25342;DHT22;13298;48.792;9.154;2023-03-20T05:14:51;7.60;99.90
25342;DHT22;13298;48.792;9.154;2023-03-20T05:17:20;7.60;99.90
25342;DHT22;13298;48.792;9.154;2023-03-20T05:19:46;7.70;99.90
25342;DHT22;13298;48.792;9.154;2023-03-20T05:22:12;7.70;99.90
25342;DHT22;13298;48.792;9.154;2023-03-20T05:24:38;7.70;99.90
25342;DHT22;13298;48.792;9.154;2023-03-20T05:27:03;7.70;99.90
25342;DHT22;13298;48.792;9.154;2023-03-20T05:29:29;7.70;99.90
25342;DHT22;13298;48.792;9.154;2023-03-20T05:31:55;7.70;99.90
25342;DHT22;13298;48.792;9.154;2023-03-20T05:34:21;7.70;99.90
25342;DHT22;13298;48.792;9.154;2023-03-20T05:36:46;7.80;99.90
25342;DHT22;13298;48.792;9.154;2023-03-20T05:39:12;7.80;99.90
25342;DHT22;13298;48.792;9.154;2023-03-20T05:41:38;7.80;99.90
25342;DHT22;13298;48.792;9.154;2023-03-20T05:44:04;7.70;99.90
25342;DHT22;13298;48.792;9.154;2023-03-20T05:46:29;7.80;99.90
25342;DHT22;13298;48.792;9.154;2023-03-20T05:48:55;7.80;99.90
25342;DHT22;13298;48.792;9.154;2023-03-20T05:51:21;7.80;99.90
25342;DHT22;13298;48.792;9.154;2023-03-20T05:53:47;7.80;99.90
25342;DHT22;13298;48.792;9.154;2023-03-20T05:56:13;7.80;99.90
25342;DHT22;13298;48.792;9.154;2023-03-20T05:58:38;7.90;99.90
25342;DHT22;13298;48.792;9.154;2023-03-20T06:01:04;7.90;99.90
25342;DHT22;13298;48.792;9.154;2023-03-20T06:03:30;7.90;99.90
25342;DHT22;13298;48.792;9.154;2023-03-20T06:05:56;7.90;99.90
25342;DHT22;13298;48.792;9.154;2023-03-20T06:08:22;8.00;99.90
25342;DHT22;13298;48.792;9.154;2023-03-20T06:10:49;8.00;99.90
25342;DHT22;13298;48.792;9.154;2023-03-20T06:13:16;8.10;99.90
25342;DHT22;13298;48.792;9.154;2023-03-20T06:15:41;8.10;99.90
25342;DHT22;13298;48.792;9.154;2023-03-20T06:18:07;8.20;99.90
25342;DHT22;13298;48.792;9.154;2023-03-20T06:20:33;8.30;99.90
25342;DHT22;13298;48.792;9.154;2023-03-20T06:22:59;8.30;99.90
25342;DHT22;13298;48.792;9.154;2023-03-20T06:25:24;8.30;99.90
25342;DHT22;13298;48.792;9.154;2023-03-20T06:27:50;8.40;99.90
25342;DHT22;13298;48.792;9.154;2023-03-20T06:30:16;8.40;99.90
25342;DHT22;13298;48.792;9.154;2023-03-20T06:32:42;8.50;99.90
25342;DHT22;13298;48.792;9.154;2023-03-20T06:35:08;8.60;99.90
25342;DHT22;13298;48.792;9.154;2023-03-20T06:37:35;8.70;99.90
25342;DHT22;13298;48.792;9.154;2023-03-20T06:40:02;8.80;99.90
25342;DHT22;13298;48.792;9.154;2023-03-20T06:42:28;8.90;99.90
25342;DHT22;13298;48.792;9.154;2023-03-20T06:44:54;9.00;99.90
25342;DHT22;13298;48.792;9.154;2023-03-20T06:47:21;9.10;99.90
25342;DHT22;13298;48.792;9.154;2023-03-20T06:49:47;9.20;99.90
25342;DHT22;13298;48.792;9.154;2023-03-20T06:52:16;9.30;99.90
25342;DHT22;13298;48.792;9.154;2023-03-20T06:54:43;9.40;99.90
25342;DHT22;13298;48.792;9.154;2023-03-20T06:57:09;9.50;99.90
25342;DHT22;13298;48.792;9.154;2023-03-20T06:59:34;9.60;99.90
25342;DHT22;13298;48.792;9.154;2023-03-20T07:02:01;9.80;99.90
25342;DHT22;13298;48.792;9.154;2023-03-20T07:04:27;10.00;99.90
25342;DHT22;13298;48.792;9.154;2023-03-20T07:06:53;10.20;99.90
25342;DHT22;13298;48.792;9.154;2023-03-20T07:09:18;10.40;99.90
25342;DHT22;13298;48.792;9.154;2023-03-20T07:11:46;10.60;99.90
25342;DHT22;13298;48.792;9.154;2023-03-20T07:14:12;10.90;99.90
25342;DHT22;13298;48.792;9.154;2023-03-20T07:16:39;11.00;99.90
25342;DHT22;13298;48.792;9.154;2023-03-20T07:19:05;11.10;99.90
25342;DHT22;13298;48.792;9.154;2023-03-20T07:21:30;11.20;99.90
25342;DHT22;13298;48.792;9.154;2023-03-20T07:23:56;11.20;99.90
25342;DHT22;13298;48.792;9.154;2023-03-20T07:26:22;11.20;99.90
25342;DHT22;13298;48.792;9.154;2023-03-20T07:28:48;11.10;99.90
25342;DHT22;13298;48.792;9.154;2023-03-20T07:31:19;10.90;99.90
25342;DHT22;13298;48.792;9.154;2023-03-20T07:33:46;10.60;99.90
25342;DHT22;13298;48.792;9.154;2023-03-20T07:36:13;10.40;99.90
25342;DHT22;13298;48.792;9.154;2023-03-20T07:38:38;10.40;99.90
25342;DHT22;13298;48.792;9.154;2023-03-20T07:41:04;10.50;99.90
25342;DHT22;13298;48.792;9.154;2023-03-20T07:43:31;10.70;99.90
25342;DHT22;13298;48.792;9.154;2023-03-20T07:45:57;10.90;99.90
25342;DHT22;13298;48.792;9.154;2023-03-20T07:48:23;11.00;99.90
25342;DHT22;13298;48.792;9.154;2023-03-20T07:50:48;11.10;99.90
25342;DHT22;13298;48.792;9.154;2023-03-20T07:53:14;11.10;99.90
25342;DHT22;13298;48.792;9.154;2023-03-20T07:55:39;11.10;99.90
25342;DHT22;13298;48.792;9.154;2023-03-20T07:58:05;11.00;99.90
25342;DHT22;13298;48.792;9.154;2023-03-20T08:00:32;11.10;99.90
25342;DHT22;13298;48.792;9.154;2023-03-20T08:02:58;11.20;99.90
25342;DHT22;13298;48.792;9.154;2023-03-20T08:05:24;11.40;99.90
25342;DHT22;13298;48.792;9.154;2023-03-20T08:07:50;11.50;99.90
25342;DHT22;13298;48.792;9.154;2023-03-20T08:10:16;11.60;99.90
25342;DHT22;13298;48.792;9.154;2023-03-20T08:12:42;11.70;99.90
25342;DHT22;13298;48.792;9.154;2023-03-20T08:15:08;11.80;99.90
25342;DHT22;13298;48.792;9.154;2023-03-20T08:17:34;11.80;99.90
25342;DHT22;13298;48.792;9.154;2023-03-20T08:19:59;11.70;99.90
25342;DHT22;13298;48.792;9.154;2023-03-20T08:22:25;11.50;99.90
25342;DHT22;13298;48.792;9.154;2023-03-20T08:24:51;11.40;99.90
25342;DHT22;13298;48.792;9.154;2023-03-20T08:27:17;11.20;99.90
25342;DHT22;13298;48.792;9.154;2023-03-20T08:29:42;11.20;99.90
25342;DHT22;13298;48.792;9.154;2023-03-20T08:32:08;11.20;99.90
25342;DHT22;13298;48.792;9.154;2023-03-20T08:34:34;11.40;99.90
25342;DHT22;13298;48.792;9.154;2023-03-20T08:37:02;11.50;99.90
25342;DHT22;13298;48.792;9.154;2023-03-20T08:39:29;11.60;99.90
25342;DHT22;13298;48.792;9.154;2023-03-20T08:41:55;11.70;99.90
25342;DHT22;13298;48.792;9.154;2023-03-20T08:44:20;11.70;99.90
25342;DHT22;13298;48.792;9.154;2023-03-20T08:46:46;11.80;99.90
25342;DHT22;13298;48.792;9.154;2023-03-20T08:49:12;11.80;99.90
25342;DHT22;13298;48.792;9.154;2023-03-20T08:51:38;12.00;99.90
25342;DHT22;13298;48.792;9.154;2023-03-20T08:54:04;12.20;99.90
25342;DHT22;13298;48.792;9.154;2023-03-20T08:56:30;12.20;99.90
25342;DHT22;13298;48.792;9.154;2023-03-20T08:58:56;12.30;99.90
25342;DHT22;13298;48.792;9.154;2023-03-20T09:01:21;12.40;99.90
25342;DHT22;13298;48.792;9.154;2023-03-20T09:03:47;12.50;99.90
25342;DHT22;13298;48.792;9.154;2023-03-20T09:06:13;12.50;99.90
25342;DHT22;13298;48.792;9.154;2023-03-20T09:08:39;12.50;99.90
25342;DHT22;13298;48.792;9.154;2023-03-20T09:11:05;12.40;99.90
25342;DHT22;13298;48.792;9.154;2023-03-20T09:13:31;12.40;99.90
25342;DHT22;13298;48.792;9.154;2023-03-20T09:15:57;12.50;99.90
25342;DHT22;13298;48.792;9.154;2023-03-20T09:18:23;12.70;99.90
25342;DHT22;13298;48.792;9.154;2023-03-20T09:20:50;12.80;99.90
25342;DHT22;13298;48.792;9.154;2023-03-20T09:23:15;13.00;99.90
25342;DHT22;13298;48.792;9.154;2023-03-20T09:25:42;13.20;99.90
25342;DHT22;13298;48.792;9.154;2023-03-20T09:28:07;13.10;99.90
25342;DHT22;13298;48.792;9.154;2023-03-20T09:30:33;13.20;99.90
25342;DHT22;13298;48.792;9.154;2023-03-20T09:32:59;13.20;99.90
25342;DHT22;13298;48.792;9.154;2023-03-20T09:35:25;13.30;99.90
25342;DHT22;13298;48.792;9.154;2023-03-20T09:37:50;13.30;99.90
25342;DHT22;13298;48.792;9.154;2023-03-20T09:51:56;13.70;99.90
25342;DHT22;13298;48.792;9.154;2023-03-20T09:54:32;13.70;99.90
25342;DHT22;13298;48.792;9.154;2023-03-20T09:57:02;13.80;99.90
25342;DHT22;13298;48.792;9.154;2023-03-20T09:59:31;14.00;99.90
25342;DHT22;13298;48.792;9.154;2023-03-20T10:02:06;14.30;99.90
25342;DHT22;13298;48.792;9.154;2023-03-20T10:04:35;14.40;99.90
25342;DHT22;13298;48.792;9.154;2023-03-20T10:07:04;14.40;99.90
25342;DHT22;13298;48.792;9.154;2023-03-20T10:09:30;14.40;99.90
25342;DHT22;13298;48.792;9.154;2023-03-20T10:12:26;14.20;99.90
25342;DHT22;13298;48.792;9.154;2023-03-20T10:18:06;13.80;99.90
25342;DHT22;13298;48.792;9.154;2023-03-20T10:21:01;13.50;99.90
25342;DHT22;13298;48.792;9.154;2023-03-20T10:23:34;13.30;99.90
25342;DHT22;13298;48.792;9.154;2023-03-20T10:26:14;13.10;99.90
25342;DHT22;13298;48.792;9.154;2023-03-20T10:28:47;12.90;99.90
25342;DHT22;13298;48.792;9.154;2023-03-20T10:40:32;11.90;99.90
25342;DHT22;13298;48.792;9.154;2023-03-20T10:43:20;11.80;99.90
25342;DHT22;13298;48.792;9.154;2023-03-20T10:46:14;11.70;99.90
25342;DHT22;13298;48.792;9.154;2023-03-20T10:48:51;11.70;99.90
25342;DHT22;13298;48.792;9.154;2023-03-20T10:51:34;11.70;99.90
25342;DHT22;13298;48.792;9.154;2023-03-20T10:54:04;11.80;99.90
25342;DHT22;13298;48.792;9.154;2023-03-20T10:56:41;11.80;99.90
25342;DHT22;13298;48.792;9.154;2023-03-20T10:59:21;12.00;99.90
25342;DHT22;13298;48.792;9.154;2023-03-20T11:01:49;12.20;99.90
25342;DHT22;13298;48.792;9.154;2023-03-20T11:04:14;12.40;99.90
25342;DHT22;13298;48.792;9.154;2023-03-20T11:06:46;12.60;99.90
25342;DHT22;13298;48.792;9.154;2023-03-20T11:09:20;12.70;99.90
25342;DHT22;13298;48.792;9.154;2023-03-20T11:11:50;12.80;99.90
25342;DHT22;13298;48.792;9.154;2023-03-20T11:14:20;12.80;99.90
25342;DHT22;13298;48.792;9.154;2023-03-20T11:16:51;12.90;99.90
25342;DHT22;13298;48.792;9.154;2023-03-20T11:19:22;12.80;99.90
25342;DHT22;13298;48.792;9.154;2023-03-20T11:21:53;12.80;99.90
25342;DHT22;13298;48.792;9.154;2023-03-20T11:24:23;12.70;99.90
25342;DHT22;13298;48.792;9.154;2023-03-20T11:26:50;12.50;99.90
25342;DHT22;13298;48.792;9.154;2023-03-20T11:29:28;12.40;99.90
25342;DHT22;13298;48.792;9.154;2023-03-20T11:34:44;12.70;99.90
25342;DHT22;13298;48.792;9.154;2023-03-20T11:37:22;12.90;99.90
25342;DHT22;13298;48.792;9.154;2023-03-20T11:40:24;13.00;99.90
25342;DHT22;13298;48.792;9.154;2023-03-20T11:43:01;13.00;99.90
25342;DHT22;13298;48.792;9.154;2023-03-20T11:45:35;13.10;99.90
25342;DHT22;13298;48.792;9.154;2023-03-20T11:48:02;13.20;99.90
25342;DHT22;13298;48.792;9.154;2023-03-20T11:52:54;13.40;99.90
25342;DHT22;13298;48.792;9.154;2023-03-20T11:55:29;13.80;99.90
25342;DHT22;13298;48.792;9.154;2023-03-20T11:57:59;14.10;99.90
25342;DHT22;13298;48.792;9.154;2023-03-20T12:00:29;14.40;99.90
25342;DHT22;13298;48.792;9.154;2023-03-20T12:03:01;14.50;99.90
25342;DHT22;13298;48.792;9.154;2023-03-20T12:05:32;14.60;99.90
25342;DHT22;13298;48.792;9.154;2023-03-20T12:08:25;14.70;99.90
25342;DHT22;13298;48.792;9.154;2023-03-20T12:10:58;14.70;99.90
25342;DHT22;13298;48.792;9.154;2023-03-20T12:13:31;14.80;99.90
25342;DHT22;13298;48.792;9.154;2023-03-20T12:16:05;14.80;99.90
25342;DHT22;13298;48.792;9.154;2023-03-20T12:18:44;14.70;99.90
25342;DHT22;13298;48.792;9.154;2023-03-20T12:24:12;14.20;99.90
25342;DHT22;13298;48.792;9.154;2023-03-20T12:32:49;14.00;99.90
25342;DHT22;13298;48.792;9.154;2023-03-20T12:35:33;14.10;99.90
25342;DHT22;13298;48.792;9.154;2023-03-20T12:38:01;14.20;99.90
25342;DHT22;13298;48.792;9.154;2023-03-20T12:40:43;14.20;99.90
25342;DHT22;13298;48.792;9.154;2023-03-20T12:43:21;14.30;99.90
25342;DHT22;13298;48.792;9.154;2023-03-20T12:49:42;14.60;99.90
25342;DHT22;13298;48.792;9.154;2023-03-20T12:52:21;14.50;99.90
25342;DHT22;13298;48.792;9.154;2023-03-20T12:55:09;14.40;99.90
25342;DHT22;13298;48.792;9.154;2023-03-20T12:57:56;14.20;99.90
25342;DHT22;13298;48.792;9.154;2023-03-20T13:00:56;14.00;99.90
25342;DHT22;13298;48.792;9.154;2023-03-20T13:06:59;13.90;99.90
25342;DHT22;13298;48.792;9.154;2023-03-20T13:12:51;14.20;99.90
25342;DHT22;13298;48.792;9.154;2023-03-20T13:21:37;14.30;99.90
25342;DHT22;13298;48.792;9.154;2023-03-20T13:30:18;14.70;99.90
25342;DHT22;13298;48.792;9.154;2023-03-20T13:33:25;14.50;99.90
25342;DHT22;13298;48.792;9.154;2023-03-20T13:36:15;14.40;99.90
25342;DHT22;13298;48.792;9.154;2023-03-20T13:38:57;14.40;99.90
25342;DHT22;13298;48.792;9.154;2023-03-20T13:41:26;14.30;99.90
25342;DHT22;13298;48.792;9.154;2023-03-20T13:43:56;14.30;99.90
25342;DHT22;13298;48.792;9.154;2023-03-20T13:46:35;14.20;99.90
25342;DHT22;13298;48.792;9.154;2023-03-20T13:49:19;14.20;99.90
25342;DHT22;13298;48.792;9.154;2023-03-20T13:52:13;14.10;99.90
25342;DHT22;13298;48.792;9.154;2023-03-20T13:55:05;14.00;99.90
25342;DHT22;13298;48.792;9.154;2023-03-20T13:58:16;13.90;99.90
25342;DHT22;13298;48.792;9.154;2023-03-20T14:03:59;13.80;99.90
25342;DHT22;13298;48.792;9.154;2023-03-20T14:08:55;14.00;99.90
25342;DHT22;13298;48.792;9.154;2023-03-20T14:13:53;14.10;99.90
25342;DHT22;13298;48.792;9.154;2023-03-20T14:16:20;14.10;99.90
25342;DHT22;13298;48.792;9.154;2023-03-20T14:18:48;13.90;99.90
25342;DHT22;13298;48.792;9.154;2023-03-20T14:21:19;13.90;99.90
25342;DHT22;13298;48.792;9.154;2023-03-20T14:23:50;13.80;99.90
25342;DHT22;13298;48.792;9.154;2023-03-20T14:26:25;13.60;99.90
25342;DHT22;13298;48.792;9.154;2023-03-20T14:28:58;13.50;99.90
25342;DHT22;13298;48.792;9.154;2023-03-20T14:31:32;13.40;99.90
25342;DHT22;13298;48.792;9.154;2023-03-20T14:36:55;13.30;99.90
25342;DHT22;13298;48.792;9.154;2023-03-20T14:39:53;13.30;99.90
25342;DHT22;13298;48.792;9.154;2023-03-20T14:42:47;13.30;99.90
25342;DHT22;13298;48.792;9.154;2023-03-20T14:45:29;13.30;99.90
25342;DHT22;13298;48.792;9.154;2023-03-20T14:53:29;13.70;99.90
25342;DHT22;13298;48.792;9.154;2023-03-20T14:58:45;14.00;99.90
25342;DHT22;13298;48.792;9.154;2023-03-20T15:04:01;14.20;99.90
25342;DHT22;13298;48.792;9.154;2023-03-20T15:06:29;14.20;99.90
25342;DHT22;13298;48.792;9.154;2023-03-20T15:09:08;14.10;99.90
25342;DHT22;13298;48.792;9.154;2023-03-20T15:11:35;14.10;99.90
25342;DHT22;13298;48.792;9.154;2023-03-20T15:14:04;14.10;99.90
25342;DHT22;13298;48.792;9.154;2023-03-20T15:16:33;14.10;99.90
25342;DHT22;13298;48.792;9.154;2023-03-20T15:19:00;14.20;99.90
25342;DHT22;13298;48.792;9.154;2023-03-20T15:21:36;14.10;99.90
25342;DHT22;13298;48.792;9.154;2023-03-20T15:24:03;14.10;99.90
25342;DHT22;13298;48.792;9.154;2023-03-20T15:26:32;14.10;99.90
25342;DHT22;13298;48.792;9.154;2023-03-20T15:29:01;14.20;99.90
25342;DHT22;13298;48.792;9.154;2023-03-20T15:31:34;14.10;99.90
25342;DHT22;13298;48.792;9.154;2023-03-20T15:34:03;14.10;99.90
25342;DHT22;13298;48.792;9.154;2023-03-20T15:36:35;14.10;99.90
25342;DHT22;13298;48.792;9.154;2023-03-20T15:39:10;14.00;99.90
25342;DHT22;13298;48.792;9.154;2023-03-20T15:41:38;14.00;99.90
25342;DHT22;13298;48.792;9.154;2023-03-20T15:44:33;13.90;99.90
25342;DHT22;13298;48.792;9.154;2023-03-20T15:47:03;13.80;99.90
25342;DHT22;13298;48.792;9.154;2023-03-20T15:49:38;13.70;99.90
25342;DHT22;13298;48.792;9.154;2023-03-20T15:52:26;13.60;99.90
25342;DHT22;13298;48.792;9.154;2023-03-20T15:55:19;13.60;99.90
25342;DHT22;13298;48.792;9.154;2023-03-20T15:57:46;13.60;99.90
25342;DHT22;13298;48.792;9.154;2023-03-20T16:00:16;13.50;99.90
25342;DHT22;13298;48.792;9.154;2023-03-20T16:02:46;13.50;99.90
25342;DHT22;13298;48.792;9.154;2023-03-20T16:05:14;13.40;99.90
25342;DHT22;13298;48.792;9.154;2023-03-20T16:07:41;13.20;99.90
25342;DHT22;13298;48.792;9.154;2023-03-20T16:10:19;13.10;99.90
25342;DHT22;13298;48.792;9.154;2023-03-20T16:12:49;13.10;99.90
25342;DHT22;13298;48.792;9.154;2023-03-20T16:15:17;13.10;99.90
25342;DHT22;13298;48.792;9.154;2023-03-20T16:17:43;13.10;99.90
25342;DHT22;13298;48.792;9.154;2023-03-20T16:20:14;13.20;99.90
25342;DHT22;13298;48.792;9.154;2023-03-20T16:22:42;13.30;99.90
25342;DHT22;13298;48.792;9.154;2023-03-20T16:25:14;13.30;99.90
25342;DHT22;13298;48.792;9.154;2023-03-20T16:27:41;13.20;99.90
25342;DHT22;13298;48.792;9.154;2023-03-20T16:30:22;13.20;99.90
25342;DHT22;13298;48.792;9.154;2023-03-20T16:33:05;13.20;99.90
25342;DHT22;13298;48.792;9.154;2023-03-20T16:35:42;13.20;99.90
25342;DHT22;13298;48.792;9.154;2023-03-20T16:38:25;13.10;99.90
25342;DHT22;13298;48.792;9.154;2023-03-20T16:41:14;13.00;99.90
25342;DHT22;13298;48.792;9.154;2023-03-20T16:43:45;12.80;99.90
25342;DHT22;13298;48.792;9.154;2023-03-20T16:46:19;12.70;99.90
25342;DHT22;13298;48.792;9.154;2023-03-20T16:48:49;12.50;99.90
25342;DHT22;13298;48.792;9.154;2023-03-20T16:51:19;12.30;99.90
25342;DHT22;13298;48.792;9.154;2023-03-20T16:53:54;12.10;99.90
25342;DHT22;13298;48.792;9.154;2023-03-20T16:56:25;12.00;99.90
25342;DHT22;13298;48.792;9.154;2023-03-20T16:58:54;11.80;99.90
25342;DHT22;13298;48.792;9.154;2023-03-20T17:01:22;11.70;99.90
25342;DHT22;13298;48.792;9.154;2023-03-20T17:03:51;11.60;99.90
25342;DHT22;13298;48.792;9.154;2023-03-20T17:08:51;11.40;99.90
25342;DHT22;13298;48.792;9.154;2023-03-20T17:11:30;11.30;99.90
25342;DHT22;13298;48.792;9.154;2023-03-20T17:13:58;11.20;99.90
25342;DHT22;13298;48.792;9.154;2023-03-20T17:16:25;11.10;99.90
25342;DHT22;13298;48.792;9.154;2023-03-20T17:18:59;11.00;99.90
25342;DHT22;13298;48.792;9.154;2023-03-20T17:21:39;11.00;99.90
25342;DHT22;13298;48.792;9.154;2023-03-20T17:24:05;10.90;99.90
25342;DHT22;13298;48.792;9.154;2023-03-20T17:26:31;10.90;99.90
25342;DHT22;13298;48.792;9.154;2023-03-20T17:28:57;10.90;99.90
25342;DHT22;13298;48.792;9.154;2023-03-20T17:31:23;10.80;99.90
25342;DHT22;13298;48.792;9.154;2023-03-20T17:33:49;10.80;99.90
25342;DHT22;13298;48.792;9.154;2023-03-20T17:36:24;10.70;99.90
25342;DHT22;13298;48.792;9.154;2023-03-20T17:38:53;10.70;99.90
25342;DHT22;13298;48.792;9.154;2023-03-20T17:41:21;10.70;99.90
25342;DHT22;13298;48.792;9.154;2023-03-20T17:43:47;10.70;99.90
25342;DHT22;13298;48.792;9.154;2023-03-20T17:46:18;10.60;99.90
25342;DHT22;13298;48.792;9.154;2023-03-20T17:48:46;10.60;99.90
25342;DHT22;13298;48.792;9.154;2023-03-20T17:51:13;10.60;99.90
25342;DHT22;13298;48.792;9.154;2023-03-20T17:53:39;10.60;99.90
25342;DHT22;13298;48.792;9.154;2023-03-20T17:56:14;10.60;99.90
25342;DHT22;13298;48.792;9.154;2023-03-20T17:58:41;10.50;99.90
25342;DHT22;13298;48.792;9.154;2023-03-20T18:01:11;10.40;99.90
25342;DHT22;13298;48.792;9.154;2023-03-20T18:03:37;10.40;99.90
25342;DHT22;13298;48.792;9.154;2023-03-20T18:06:03;10.30;99.90